Time;durP1;ratioP1;P1;durP2;ratioP2;P2;SDS_P1;SDS_P2;PMS_P1;PMS_P2;Temp;Humidity;BMP_temperature;BMP_pressure;BME280_temperature;BME280_humidity;BME280_pressure;Samples;Min_cycle;Max_cycle;Signal;HPM_P1;HPM_P2
2021/09/11 00:00:55;;;;;;;6.70;6.40;;;19.30;99.90;;;;;;5022059;28;20922;-94
2021/09/11 00:03:44;;;;;;;6.60;6.30;;;19.70;99.90;;;;;;5032364;28;20388;-93
2021/09/11 00:06:13;;;;;;;7.03;6.63;;;19.90;99.90;;;;;;5018310;28;20426;-92
2021/09/11 00:08:48;;;;;;;7.33;6.93;;;19.90;99.90;;;;;;5017479;28;20428;-92
2021/09/11 00:11:28;;;;;;;7.80;7.30;;;18.50;99.90;;;;;;5034353;28;20490;-92
2021/09/11 00:13:58;;;;;;;6.90;6.50;;;21.00;99.90;;;;;;5016886;28;20431;-92
2021/09/11 00:16:44;;;;;;;8.60;8.00;;;19.40;99.90;;;;;;5015185;28;20471;-94
2021/09/11 00:19:13;;;;;;;6.93;6.53;;;19.30;99.90;;;;;;5017320;28;20835;-93
2021/09/11 00:21:40;;;;;;;6.53;6.17;;;19.30;99.90;;;;;;5016037;28;20415;-92
2021/09/11 00:24:09;;;;;;;6.53;6.20;;;19.30;99.90;;;;;;5016778;28;20471;-92
2021/09/11 00:26:55;;;;;;;7.73;7.20;;;19.50;99.90;;;;;;5017469;28;20402;-91
2021/09/11 00:29:22;;;;;;;6.80;6.30;;;19.50;99.90;;;;;;5031991;28;20459;-94
2021/09/11 00:31:49;;;;;;;6.47;6.17;;;19.40;99.90;;;;;;5020909;28;20449;-92
2021/09/11 00:34:31;;;;;;;7.77;7.23;;;19.30;99.90;;;;;;5033768;28;20420;-93
2021/09/11 00:36:57;;;;;;;6.53;6.23;;;21.10;99.90;;;;;;5015639;28;20484;-93
2021/09/11 00:39:38;;;;;;;6.67;6.07;;;19.40;99.90;;;;;;5001518;28;20405;-93
2021/09/11 00:42:11;;;;;;;6.77;6.43;;;19.40;99.90;;;;;;4984327;28;20419;-91
2021/09/11 00:44:44;;;;;;;6.77;6.27;;;19.50;99.90;;;;;;5013309;28;20439;-92
2021/09/11 00:47:12;;;;;;;7.10;6.60;;;19.80;99.90;;;;;;4997020;28;20415;-93
2021/09/11 00:49:39;;;;;;;7.13;6.63;;;19.40;99.90;;;;;;4996369;28;20412;-92
2021/09/11 00:52:14;;;;;;;7.17;6.87;;;19.50;99.90;;;;;;5014958;28;20420;-93
2021/09/11 00:54:43;;;;;;;7.03;6.40;;;18.70;99.90;;;;;;5012654;28;20448;-94
2021/09/11 00:57:54;;;;;;;6.00;5.70;;;19.30;99.90;;;;;;5000144;28;20424;-94
2021/09/11 01:00:22;;;;;;;6.57;6.13;;;19.50;99.90;;;;;;5009657;28;20411;-92
2021/09/11 01:02:51;;;;;;;6.80;6.30;;;19.40;99.90;;;;;;5002144;28;20424;-92
2021/09/11 01:05:47;;;;;;;6.37;6.07;;;19.20;99.90;;;;;;5001726;28;20425;-93
2021/09/11 01:08:19;;;;;;;6.33;6.00;;;19.50;99.90;;;;;;4983866;28;20437;-94
2021/09/11 01:11:06;;;;;;;6.27;5.97;;;19.60;99.90;;;;;;4998124;28;20416;-94
2021/09/11 01:13:32;;;;;;;6.43;6.10;;;19.70;99.90;;;;;;5000933;28;20404;-93
2021/09/11 01:16:03;;;;;;;6.00;5.80;;;20.90;99.90;;;;;;5000830;28;20460;-92
2021/09/11 01:18:34;;;;;;;6.30;6.00;;;18.60;99.90;;;;;;4999198;28;20413;-92
2021/09/11 01:21:00;;;;;;;6.53;6.23;;;19.90;99.90;;;;;;5000204;28;20417;-93
2021/09/11 01:23:34;;;;;;;6.80;6.37;;;19.70;99.90;;;;;;5000615;28;20399;-95
2021/09/11 01:26:03;;;;;;;6.93;6.33;;;19.40;99.90;;;;;;5018316;28;20448;-94
2021/09/11 01:28:44;;;;;;;6.73;6.40;;;19.90;99.90;;;;;;5020331;28;20409;-91
2021/09/11 01:31:14;;;;;;;6.87;6.53;;;18.90;99.90;;;;;;5021974;28;20484;-92
2021/09/11 01:34:00;;;;;;;7.70;7.20;;;19.70;99.90;;;;;;5020986;28;20431;-93
2021/09/11 01:36:34;;;;;;;8.00;7.30;;;21.10;99.90;;;;;;5030864;28;20479;-94
2021/09/11 01:39:04;;;;;;;7.77;7.27;;;18.80;99.90;;;;;;5023861;28;20408;-93
2021/09/11 01:41:43;;;;;;;8.00;7.60;;;19.80;99.90;;;;;;5022613;28;20431;-94
2021/09/11 01:44:15;;;;;;;9.23;8.63;;;19.00;99.90;;;;;;5023523;28;20418;-94
2021/09/11 01:46:42;;;;;;;9.30;8.60;;;21.10;99.90;;;;;;5019488;28;20412;-92
2021/09/11 01:49:10;;;;;;;9.50;8.70;;;19.80;99.90;;;;;;5037218;28;20479;-91
2021/09/11 01:51:48;;;;;;;9.57;8.73;;;19.90;99.90;;;;;;5036649;28;20428;-92
2021/09/11 01:54:14;;;;;;;10.03;9.17;;;20.60;99.90;;;;;;5018513;28;20411;-95
2021/09/11 01:56:47;;;;;;;8.70;8.20;;;19.70;99.90;;;;;;5035662;28;20424;-92
2021/09/11 01:59:15;;;;;;;11.00;10.17;;;19.80;99.90;;;;;;5035625;28;20488;-93
2021/09/11 02:01:51;;;;;;;11.33;10.23;;;20.30;99.90;;;;;;5019173;28;20422;-95
2021/09/11 02:04:31;;;;;;;11.37;10.27;;;20.60;99.90;;;;;;5035549;28;20423;-94
2021/09/11 02:07:26;;;;;;;12.57;10.40;;;20.10;99.90;;;;;;5018894;28;20483;-92
2021/09/11 02:09:54;;;;;;;12.43;11.37;;;19.60;99.90;;;;;;5038137;28;20446;-92
2021/09/11 02:12:36;;;;;;;12.10;11.20;;;19.90;99.90;;;;;;5022356;28;20426;-92
2021/09/11 02:15:09;;;;;;;12.00;10.90;;;19.70;99.90;;;;;;5035372;28;20452;-93
2021/09/11 02:17:35;;;;;;;14.70;13.60;;;19.80;99.90;;;;;;5017338;28;20420;-92
2021/09/11 02:20:04;;;;;;;14.60;13.17;;;21.20;99.90;;;;;;5015577;28;20442;-93
2021/09/11 02:22:33;;;;;;;16.23;14.63;;;21.50;99.90;;;;;;5020021;28;20424;-93
2021/09/11 02:25:06;;;;;;;17.27;15.53;;;19.70;99.90;;;;;;5013281;28;20423;-93
2021/09/11 02:27:54;;;;;;;19.47;17.73;;;20.10;99.90;;;;;;4999845;28;20438;-92
2021/09/11 02:30:24;;;;;;;18.00;16.40;;;19.80;99.90;;;;;;5015452;28;20412;-91
2021/09/11 02:32:50;;;;;;;18.23;16.47;;;19.30;99.90;;;;;;5015448;28;20435;-93
2021/09/11 02:35:20;;;;;;;18.53;16.73;;;19.50;99.90;;;;;;5015729;28;20470;-92
2021/09/11 02:37:51;;;;;;;20.40;18.47;;;19.50;99.90;;;;;;5033543;28;20165;-93
2021/09/11 02:40:19;;;;;;;18.40;16.80;;;19.90;99.90;;;;;;5016076;28;20512;-91
2021/09/11 02:42:45;;;;;;;21.50;19.60;;;19.70;99.90;;;;;;5013882;28;20427;-92
2021/09/11 02:45:20;;;;;;;19.63;17.83;;;19.00;99.90;;;;;;5030056;28;20431;-93
2021/09/11 02:47:53;;;;;;;21.97;19.77;;;19.60;99.90;;;;;;5016844;28;20424;-93
2021/09/11 02:50:38;;;;;;;20.40;18.70;;;19.80;99.90;;;;;;5016161;28;20411;-92
2021/09/11 02:53:08;;;;;;;21.03;19.03;;;19.60;99.90;;;;;;5030722;28;20446;-92
2021/09/11 02:55:37;;;;;;;21.43;19.37;;;19.90;99.90;;;;;;5034659;28;20463;-92
2021/09/11 02:58:11;;;;;;;22.13;19.97;;;21.20;99.90;;;;;;5017361;28;20420;-93
2021/09/11 03:00:49;;;;;;;21.50;19.63;;;19.80;99.90;;;;;;5036399;28;20422;-93
2021/09/11 03:03:23;;;;;;;21.70;19.70;;;19.50;99.90;;;;;;5002846;28;20414;-92
2021/09/11 03:06:11;;;;;;;24.27;21.90;;;19.60;99.90;;;;;;5015658;28;20419;-92
2021/09/11 03:08:40;;;;;;;23.93;21.43;;;19.60;99.90;;;;;;5017651;28;20444;-92
2021/09/11 03:11:14;;;;;;;23.53;20.97;;;19.60;99.90;;;;;;5017870;28;20430;-93
2021/09/11 03:13:44;;;;;;;22.77;20.63;;;19.70;99.90;;;;;;5017573;28;20407;-94
2021/09/11 03:16:10;;;;;;;24.63;22.00;;;21.10;99.90;;;;;;5018056;28;20554;-92
2021/09/11 03:18:38;;;;;;;29.00;23.00;;;19.50;99.90;;;;;;5018469;28;20400;-92
2021/09/11 03:21:19;;;;;;;25.57;22.87;;;18.80;99.90;;;;;;5020729;28;20428;-92
2021/09/11 03:23:53;;;;;;;23.77;21.20;;;19.50;99.90;;;;;;5022015;28;20420;-93
2021/09/11 03:26:34;;;;;;;24.33;21.90;;;19.60;99.90;;;;;;5020058;28;20435;-92
2021/09/11 03:29:09;;;;;;;27.17;24.27;;;18.90;99.90;;;;;;5001597;28;20419;-92
2021/09/11 03:31:48;;;;;;;23.60;21.20;;;19.60;99.90;;;;;;5035172;28;20415;-92
2021/09/11 03:34:22;;;;;;;24.00;21.60;;;18.60;99.90;;;;;;5018295;28;20423;-94
2021/09/11 03:37:18;;;;;;;25.90;23.40;;;19.60;99.90;;;;;;5015859;28;20482;-94
2021/09/11 03:39:47;;;;;;;24.57;21.93;;;19.40;99.90;;;;;;5028929;28;20411;-94
2021/09/11 03:42:40;;;;;;;;;;;;;;;;;;;;;
2021/09/11 03:45:19;;;;;;;22.27;20.07;;;19.60;99.90;;;;;;5033239;28;20874;-92
2021/09/11 03:47:45;;;;;;;28.40;23.37;;;18.90;99.90;;;;;;5031779;28;20412;-93
2021/09/11 03:53:16;;;;;;;23.43;21.33;;;19.30;99.90;;;;;;5022054;28;20699;-92
2021/09/11 03:55:42;;;;;;;23.13;20.67;;;19.50;99.90;;;;;;5031899;28;20475;-92
2021/09/11 03:58:14;;;;;;;24.37;21.90;;;19.50;99.90;;;;;;5016855;28;20419;-94
2021/09/11 04:00:44;;;;;;;23.43;21.03;;;19.50;99.90;;;;;;5005829;28;20184;-93
2021/09/11 04:03:33;;;;;;;24.70;22.30;;;20.60;99.90;;;;;;5034919;28;20400;-93
2021/09/11 04:05:59;;;;;;;21.60;19.50;;;21.10;99.90;;;;;;5033734;28;20419;-92
2021/09/11 04:08:32;;;;;;;24.50;21.80;;;19.70;99.90;;;;;;5019476;28;20514;-92
2021/09/11 04:11:06;;;;;;;23.77;21.30;;;21.10;99.90;;;;;;5021697;28;20471;-94
2021/09/11 04:13:40;;;;;;;28.07;24.23;;;20.20;99.90;;;;;;5038644;28;20399;-92
2021/09/11 04:16:06;;;;;;;26.30;23.47;;;20.10;99.90;;;;;;5020218;28;20602;-92
2021/09/11 04:18:35;;;;;;;24.37;21.70;;;19.20;99.90;;;;;;5037055;28;20415;-91
2021/09/11 04:21:01;;;;;;;26.47;23.60;;;19.20;99.90;;;;;;5022243;28;20423;-94
2021/09/11 04:23:27;;;;;;;27.07;24.00;;;19.10;99.90;;;;;;5025004;28;20445;-94
2021/09/11 04:25:54;;;;;;;25.33;22.80;;;18.80;99.90;;;;;;5024473;28;20423;-93
2021/09/11 04:28:22;;;;;;;26.40;23.80;;;18.70;99.90;;;;;;5041873;28;20423;-93
2021/09/11 04:30:55;;;;;;;25.53;22.83;;;18.90;99.90;;;;;;5025044;28;20407;-93
2021/09/11 04:33:21;;;;;;;24.47;21.53;;;17.90;99.90;;;;;;5025028;28;20645;-93
2021/09/11 04:35:49;;;;;;;24.03;20.33;;;19.80;99.90;;;;;;5024077;28;20488;-91
2021/09/11 04:38:15;;;;;;;21.70;19.50;;;19.00;99.90;;;;;;5039154;28;20211;-93
2021/09/11 04:40:52;;;;;;;21.53;19.40;;;20.70;99.90;;;;;;5039283;28;20434;-93
2021/09/11 04:43:28;;;;;;;19.03;17.33;;;18.40;99.90;;;;;;5039344;28;20152;-93
2021/09/11 04:46:02;;;;;;;15.90;14.50;;;19.60;99.90;;;;;;5021774;28;20462;-92
2021/09/11 04:48:28;;;;;;;17.37;15.67;;;18.80;99.90;;;;;;5038452;28;20430;-92
2021/09/11 04:50:57;;;;;;;17.03;15.40;;;18.80;99.90;;;;;;5021325;28;20428;-92
2021/09/11 04:53:27;;;;;;;16.90;15.30;;;18.50;99.90;;;;;;5019418;28;20183;-93
2021/09/11 04:55:54;;;;;;;16.20;14.73;;;19.60;99.90;;;;;;5036344;28;20466;-92
2021/09/11 04:58:32;;;;;;;17.37;15.87;;;18.10;99.90;;;;;;5034946;28;20491;-94
2021/09/11 05:01:04;;;;;;;14.57;13.37;;;19.80;99.90;;;;;;5014671;28;20425;-92
2021/09/11 05:03:37;;;;;;;16.20;14.67;;;18.70;99.90;;;;;;5019218;28;20430;-95
2021/09/11 05:06:08;;;;;;;15.57;14.03;;;18.60;99.90;;;;;;5019691;28;20418;-94
2021/09/11 05:08:35;;;;;;;16.57;15.00;;;18.70;99.90;;;;;;5037140;28;20400;-95
2021/09/11 05:11:00;;;;;;;15.77;14.40;;;18.50;99.90;;;;;;5016750;28;20470;-92
2021/09/11 05:13:34;;;;;;;12.93;11.73;;;18.80;99.90;;;;;;5032369;28;20189;-94
2021/09/11 05:16:17;;;;;;;12.77;11.67;;;19.20;99.90;;;;;;5032207;28;20540;-91
2021/09/11 05:18:43;;;;;;;12.50;11.30;;;18.70;99.90;;;;;;5015690;28;20424;-90
2021/09/11 05:21:12;;;;;;;10.47;9.70;;;18.60;99.90;;;;;;5016679;28;20435;-91
2021/09/11 05:23:38;;;;;;;11.27;10.43;;;18.60;99.90;;;;;;5017451;28;20424;-93
2021/09/11 05:26:10;;;;;;;12.20;11.00;;;18.90;99.90;;;;;;4999341;28;20614;-91
2021/09/11 05:28:38;;;;;;;11.00;10.00;;;18.60;99.90;;;;;;5033808;28;20419;-92
2021/09/11 05:31:17;;;;;;;10.93;10.00;;;18.60;99.90;;;;;;5034487;28;20442;-92
2021/09/11 05:34:07;;;;;;;10.87;9.97;;;19.00;99.90;;;;;;5035405;28;20419;-93
2021/09/11 05:36:38;;;;;;;10.80;9.90;;;18.40;99.90;;;;;;4997660;28;20507;-92
2021/09/11 05:39:19;;;;;;;10.10;9.20;;;18.70;99.90;;;;;;4983696;28;20432;-93
2021/09/11 05:41:53;;;;;;;9.83;8.83;;;18.80;99.90;;;;;;4999664;28;20443;-92
2021/09/11 05:44:19;;;;;;;9.53;8.77;;;18.60;99.90;;;;;;5002038;28;20435;-92
2021/09/11 05:46:47;;;;;;;7.97;7.57;;;18.70;99.90;;;;;;5002168;28;20476;-92
2021/09/11 05:49:15;;;;;;;8.60;7.90;;;20.90;99.90;;;;;;4994065;28;20463;-94
2021/09/11 05:51:41;;;;;;;9.00;8.33;;;20.20;99.90;;;;;;4992361;28;20432;-91
2021/09/11 05:54:29;;;;;;;9.30;7.80;;;20.40;99.90;;;;;;4995272;28;20443;-92
2021/09/11 05:57:20;;;;;;;8.13;7.60;;;19.00;99.90;;;;;;4979803;28;20201;-94
2021/09/11 05:59:53;;;;;;;7.40;7.00;;;18.60;99.90;;;;;;4990991;28;20572;-92
2021/09/11 06:02:19;;;;;;;12.60;7.17;;;20.00;99.90;;;;;;5011476;28;20424;-92
2021/09/11 06:04:48;;;;;;;6.50;6.10;;;18.70;99.90;;;;;;4994303;28;20421;-94
2021/09/11 06:07:37;;;;;;;5.80;5.40;;;18.70;99.50;;;;;;4996149;28;20162;-94
2021/09/11 06:10:12;;;;;;;6.20;5.77;;;19.00;97.90;;;;;;5007493;28;20436;-95
2021/09/11 06:12:44;;;;;;;6.20;5.83;;;19.10;97.00;;;;;;4995904;28;20417;-94
2021/09/11 06:15:15;;;;;;;5.97;4.93;;;19.10;96.90;;;;;;4996450;28;20547;-93
2021/09/11 06:17:55;;;;;;;5.80;5.30;;;19.10;96.70;;;;;;4993418;28;20478;-92
2021/09/11 06:20:21;;;;;;;7.03;5.20;;;20.40;97.30;;;;;;4996647;28;20496;-90
2021/09/11 06:22:48;;;;;;;5.77;4.90;;;19.90;98.20;;;;;;5015603;28;20524;-93
2021/09/11 06:25:38;;;;;;;5.60;5.20;;;19.40;97.70;;;;;;4995473;28;20275;-94
2021/09/11 06:28:07;;;;;;;8.03;4.70;;;18.90;96.20;;;;;;4997841;28;20515;-94
2021/09/11 06:30:35;;;;;;;4.90;4.60;;;19.00;96.50;;;;;;5016102;28;20427;-92
2021/09/11 06:33:17;;;;;;;5.63;5.03;;;19.10;96.00;;;;;;5000311;28;21071;-93
2021/09/11 06:35:47;;;;;;;5.10;4.80;;;19.00;95.50;;;;;;5001126;28;20559;-96
2021/09/11 06:38:22;;;;;;;4.93;4.60;;;19.10;96.50;;;;;;5017575;28;20428;-93
2021/09/11 06:40:55;;;;;;;5.20;4.80;;;19.20;96.20;;;;;;5016155;28;20419;-94
2021/09/11 06:43:26;;;;;;;4.90;4.70;;;18.60;96.30;;;;;;5015156;28;20193;-92
2021/09/11 06:46:03;;;;;;;5.87;5.57;;;19.20;95.50;;;;;;5014341;28;20451;-90
2021/09/11 06:48:30;;;;;;;5.30;5.10;;;21.10;96.80;;;;;;5033753;28;20407;-94
2021/09/11 06:51:01;;;;;;;4.70;4.43;;;19.30;96.10;;;;;;5029212;28;20519;-94
2021/09/11 06:53:26;;;;;;;4.63;4.37;;;19.70;95.20;;;;;;5009815;28;20427;-89
2021/09/11 06:55:52;;;;;;;8.43;4.73;;;20.00;95.60;;;;;;5026750;28;20470;-89
2021/09/11 06:58:18;;;;;;;4.37;4.20;;;21.90;94.10;;;;;;4999404;28;20296;-90
2021/09/11 07:00:43;;;;;;;3.87;3.67;;;21.00;91.80;;;;;;4999287;28;20267;-93
2021/09/11 07:03:09;;;;;;;3.23;3.23;;;22.30;89.60;;;;;;5001833;28;20215;-96
2021/09/11 07:05:35;;;;;;;4.07;3.87;;;23.00;82.30;;;;;;5001629;28;20168;-95
2021/09/11 07:08:00;;;;;;;4.10;3.87;;;23.40;78.30;;;;;;5002374;28;20183;-94
2021/09/11 07:10:26;;;;;;;3.87;3.57;;;24.40;79.60;;;;;;5000192;28;20212;-94
2021/09/11 07:12:51;;;;;;;4.33;4.00;;;24.20;82.20;;;;;;5002318;28;20279;-94
2021/09/11 07:15:17;;;;;;;4.90;3.83;;;21.80;81.50;;;;;;5003234;28;20543;-92
2021/09/11 07:17:43;;;;;;;3.93;3.63;;;22.50;85.10;;;;;;5019629;28;20181;-92
2021/09/11 07:20:09;;;;;;;4.03;3.87;;;22.10;85.80;;;;;;5003506;28;20210;-94
2021/09/11 07:22:35;;;;;;;3.93;3.83;;;20.80;85.30;;;;;;4985804;28;20185;-93
2021/09/11 07:25:01;;;;;;;6.97;4.87;;;22.00;88.90;;;;;;5024410;28;20470;-93
2021/09/11 07:27:30;;;;;;;4.17;3.60;;;22.00;90.10;;;;;;5007105;28;20265;-91
2021/09/11 07:29:59;;;;;;;6.27;3.93;;;21.00;88.90;;;;;;4980597;28;20436;-93
2021/09/11 07:32:26;;;;;;;4.60;4.43;;;20.30;89.40;;;;;;4983503;28;20463;-93
2021/09/11 07:34:51;;;;;;;5.77;4.93;;;21.00;91.00;;;;;;4989983;28;20460;-94
2021/09/11 07:37:20;;;;;;;4.13;4.00;;;21.10;91.40;;;;;;5003343;28;20475;-91
2021/09/11 07:39:47;;;;;;;4.07;3.67;;;19.80;91.50;;;;;;5012524;28;20183;-91
2021/09/11 07:42:14;;;;;;;4.27;4.00;;;19.10;91.40;;;;;;5014184;28;20423;-91
2021/09/11 07:44:45;;;;;;;4.60;4.30;;;19.70;91.50;;;;;;5010600;28;20414;-90
2021/09/11 07:47:11;;;;;;;3.73;3.43;;;19.90;90.90;;;;;;4994683;28;20438;-91
2021/09/11 07:49:38;;;;;;;3.27;3.10;;;20.30;91.50;;;;;;5008653;28;20415;-92
2021/09/11 07:52:05;;;;;;;4.50;4.30;;;19.10;90.20;;;;;;4989591;28;20424;-91
2021/09/11 07:54:42;;;;;;;;;;;;;;;;;;;;;
2021/09/11 07:57:15;;;;;;;3.27;3.10;;;19.80;92.10;;;;;;5026999;28;20494;-92
2021/09/11 07:59:45;;;;;;;4.77;4.40;;;19.80;91.40;;;;;;5006024;28;20415;-90
2021/09/11 08:02:13;;;;;;;3.70;3.50;;;18.80;91.30;;;;;;5023854;28;20438;-91
2021/09/11 08:04:45;;;;;;;4.27;3.83;;;19.90;92.00;;;;;;5011668;28;20420;-92
2021/09/11 08:07:10;;;;;;;8.13;7.43;;;20.10;92.30;;;;;;5029315;28;20419;-90
2021/09/11 08:09:46;;;;;;;4.23;4.03;;;19.90;91.50;;;;;;5010617;28;20439;-92
2021/09/11 08:12:22;;;;;;;3.83;3.70;;;22.10;91.90;;;;;;5012786;28;20184;-91
2021/09/11 08:14:53;;;;;;;3.60;3.40;;;19.70;87.70;;;;;;5029534;28;20455;-91
2021/09/11 08:17:20;;;;;;;4.07;3.73;;;20.70;90.50;;;;;;5009697;28;20444;-87
2021/09/11 08:19:47;;;;;;;3.10;3.00;;;20.90;88.00;;;;;;5026752;28;20763;-88
2021/09/11 08:22:13;;;;;;;3.20;3.17;;;20.90;88.50;;;;;;5007320;28;20446;-89
2021/09/11 08:24:45;;;;;;;3.23;3.13;;;23.30;88.10;;;;;;5010073;28;20446;-91
2021/09/11 08:27:12;;;;;;;2.83;2.63;;;23.40;75.30;;;;;;5014113;28;20172;-91
2021/09/11 08:29:41;;;;;;;3.10;2.87;;;24.50;77.50;;;;;;5013980;28;20426;-90
2021/09/11 08:32:13;;;;;;;2.70;2.60;;;24.10;71.30;;;;;;5013502;28;20446;-92
2021/09/11 08:34:39;;;;;;;3.50;3.20;;;26.30;73.00;;;;;;5014513;28;20435;-91
2021/09/11 08:37:07;;;;;;;2.03;2.03;;;26.70;69.00;;;;;;5031693;28;20460;-89
2021/09/11 08:39:32;;;;;;;2.40;2.37;;;27.10;67.00;;;;;;4997397;28;20451;-93
2021/09/11 08:42:01;;;;;;;2.30;2.20;;;25.20;61.60;;;;;;5010519;28;20408;-92
2021/09/11 08:44:31;;;;;;;1.90;1.90;;;25.50;61.50;;;;;;5010130;28;20416;-93
2021/09/11 08:46:57;;;;;;;2.10;2.10;;;26.00;60.90;;;;;;5009586;28;20495;-89
2021/09/11 08:49:23;;;;;;;2.13;2.13;;;24.70;57.00;;;;;;5003259;28;20462;-89
2021/09/11 08:51:51;;;;;;;2.40;2.30;;;26.80;58.90;;;;;;5025670;28;20418;-89
2021/09/11 08:54:25;;;;;;;2.23;2.13;;;28.80;56.40;;;;;;5012464;28;20419;-91
2021/09/11 08:56:54;;;;;;;1.90;1.90;;;27.50;54.70;;;;;;5014532;28;20502;-92
2021/09/11 08:59:20;;;;;;;2.17;1.93;;;27.60;55.70;;;;;;5012865;28;20443;-89
2021/09/11 09:02:09;;;;;;;2.17;2.17;;;28.20;59.90;;;;;;5011779;28;20426;-87
2021/09/11 09:04:54;;;;;;;2.10;2.00;;;26.30;55.10;;;;;;5019036;28;20157;-91
2021/09/11 09:07:43;;;;;;;1.80;1.80;;;25.80;56.10;;;;;;5039859;28;20441;-92
2021/09/11 09:10:14;;;;;;;2.20;2.00;;;24.70;57.10;;;;;;5017347;28;20456;-92
2021/09/11 09:12:44;;;;;;;2.23;2.13;;;24.10;57.20;;;;;;5029455;28;20415;-91
2021/09/11 09:15:27;;;;;;;2.40;2.33;;;23.60;58.40;;;;;;5028177;28;20456;-91
2021/09/11 09:17:54;;;;;;;2.00;1.90;;;23.40;58.80;;;;;;5024996;28;20488;-91
2021/09/11 09:20:28;;;;;;;1.73;1.73;;;23.60;58.90;;;;;;5025471;28;20447;-90
2021/09/11 09:23:07;;;;;;;2.50;2.40;;;23.10;58.30;;;;;;5023597;28;20727;-90
2021/09/11 09:25:35;;;;;;;2.67;2.67;;;23.70;59.70;;;;;;5023541;28;20814;-88
2021/09/11 09:28:02;;;;;;;2.27;2.27;;;23.50;59.20;;;;;;5026762;28;20913;-92
2021/09/11 09:30:46;;;;;;;1.77;1.77;;;23.80;59.00;;;;;;5006257;28;20412;-90
2021/09/11 09:33:33;;;;;;;3.13;2.20;;;23.50;58.30;;;;;;5024342;28;20406;-90
2021/09/11 09:36:00;;;;;;;2.67;2.57;;;23.30;59.40;;;;;;5024451;28;20506;-90
2021/09/11 09:38:33;;;;;;;2.50;2.30;;;23.90;59.80;;;;;;5025948;28;20411;-90
2021/09/11 09:40:59;;;;;;;2.10;2.10;;;23.60;59.10;;;;;;5012052;28;20440;-90
2021/09/11 09:43:42;;;;;;;2.07;2.00;;;24.90;61.20;;;;;;5006056;28;20431;-91
2021/09/11 09:46:15;;;;;;;2.40;2.20;;;23.60;59.30;;;;;;5007016;28;20608;-88
2021/09/11 09:48:43;;;;;;;2.27;2.10;;;22.80;59.30;;;;;;5025997;28;20443;-89
2021/09/11 09:51:11;;;;;;;2.13;2.13;;;25.20;60.60;;;;;;5006848;28;20426;-90
2021/09/11 09:53:39;;;;;;;2.60;2.60;;;25.80;60.50;;;;;;5023522;28;20414;-90
2021/09/11 09:56:08;;;;;;;2.23;2.03;;;27.30;60.60;;;;;;5009650;28;20993;-90
2021/09/11 09:58:35;;;;;;;6.07;2.17;;;23.20;56.70;;;;;;5027331;28;20411;-86
2021/09/11 10:01:01;;;;;;;1.73;1.63;;;25.60;56.90;;;;;;5015297;28;20442;-90
2021/09/11 10:03:27;;;;;;;2.40;2.40;;;26.40;55.40;;;;;;5013989;28;20445;-89
2021/09/11 10:05:59;;;;;;;2.10;2.00;;;27.10;56.20;;;;;;5030024;28;20416;-90
2021/09/11 10:08:27;;;;;;;2.30;2.10;;;30.20;61.90;;;;;;5019063;28;20431;-88
2021/09/11 10:10:57;;;;;;;1.80;1.80;;;28.40;51.80;;;;;;5035733;28;20518;-87
2021/09/11 10:13:28;;;;;;;1.83;1.83;;;28.60;52.40;;;;;;5018598;28;20422;-93
2021/09/11 10:15:55;;;;;;;2.60;1.90;;;;;;;;;;5010845;28;20475;-90
2021/09/11 10:18:39;;;;;;;1.50;1.40;;;;;;;;;;5022906;28;20412;-91
2021/09/11 10:21:13;;;;;;;2.00;2.00;;;;;;;;;;5008549;28;20422;-91
2021/09/11 10:24:05;;;;;;;2.10;2.10;;;30.00;46.30;;;;;;5009689;28;20410;-91
2021/09/11 10:26:54;;;;;;;2.30;2.30;;;29.80;46.80;;;;;;5009212;28;20442;-91
2021/09/11 10:29:31;;;;;;;3.43;3.43;;;28.20;48.40;;;;;;5007244;28;20886;-90
2021/09/11 10:32:20;;;;;;;2.70;2.67;;;27.40;50.30;;;;;;5025639;28;20420;-89
2021/09/11 10:35:17;;;;;;;2.40;2.20;;;26.80;51.20;;;;;;5006950;28;20403;-89
2021/09/11 10:37:48;;;;;;;2.70;2.50;;;26.60;51.50;;;;;;5026356;28;20483;-91
2021/09/11 10:40:43;;;;;;;2.83;2.73;;;27.90;53.50;;;;;;5024648;28;20423;-88
2021/09/11 10:43:29;;;;;;;2.50;2.37;;;26.00;52.90;;;;;;5006243;28;20431;-87
2021/09/11 10:46:01;;;;;;;2.30;2.20;;;25.80;53.90;;;;;;5018041;28;20427;-89
2021/09/11 10:48:43;;;;;;;2.53;2.43;;;25.50;54.80;;;;;;5020294;28;20427;-92
2021/09/11 10:51:11;;;;;;;2.93;2.87;;;25.20;55.20;;;;;;5020952;28;20411;-89
2021/09/11 10:53:37;;;;;;;3.30;3.23;;;26.10;56.10;;;;;;5019964;28;20435;-89
2021/09/11 10:56:27;;;;;;;3.10;2.87;;;25.20;55.70;;;;;;5022002;28;20459;-91
2021/09/11 10:59:18;;;;;;;2.70;2.70;;;25.10;56.40;;;;;;5025290;28;20196;-91
2021/09/11 11:02:04;;;;;;;2.80;2.70;;;25.10;55.70;;;;;;5023333;28;20478;-87
2021/09/11 11:04:38;;;;;;;3.33;3.10;;;24.80;56.10;;;;;;5023960;28;20479;-90
2021/09/11 11:07:09;;;;;;;2.53;2.53;;;24.70;56.90;;;;;;5022844;28;20468;-89
2021/09/11 11:09:47;;;;;;;3.37;3.17;;;24.30;57.00;;;;;;5020505;28;20416;-92
2021/09/11 11:12:18;;;;;;;3.13;2.93;;;26.50;58.50;;;;;;5024384;28;20423;-90
2021/09/11 11:14:46;;;;;;;3.60;3.30;;;25.00;57.70;;;;;;5008504;28;21118;-88
2021/09/11 11:17:19;;;;;;;3.40;3.30;;;24.70;57.50;;;;;;5023276;28;20443;-88
2021/09/11 11:19:48;;;;;;;3.07;2.90;;;24.40;57.90;;;;;;5021616;28;20854;-91
2021/09/11 11:22:26;;;;;;;3.43;3.13;;;24.40;58.50;;;;;;5026716;28;20455;-89
2021/09/11 11:24:53;;;;;;;4.03;3.83;;;25.60;59.50;;;;;;4991836;28;20439;-91
2021/09/11 11:27:22;;;;;;;17.73;15.90;;;23.90;58.80;;;;;;5007079;28;20436;-91
2021/09/11 11:29:51;;;;;;;27.27;25.13;;;23.60;59.60;;;;;;5026550;28;20482;-88
2021/09/11 11:32:20;;;;;;;18.33;16.73;;;24.00;60.40;;;;;;5021769;28;20412;-87
2021/09/11 11:34:46;;;;;;;8.43;7.87;;;24.10;60.10;;;;;;5022789;28;20408;-92
2021/09/11 11:37:15;;;;;;;5.50;5.20;;;23.80;60.50;;;;;;5007180;28;20483;-94
2021/09/11 11:39:46;;;;;;;3.67;3.50;;;25.50;62.40;;;;;;5006168;28;20456;-92
2021/09/11 11:42:12;;;;;;;2.97;2.90;;;24.00;59.70;;;;;;5013421;28;20894;-90
2021/09/11 11:44:50;;;;;;;3.10;3.00;;;24.80;60.20;;;;;;5004877;28;20416;-90
2021/09/11 11:47:43;;;;;;;3.23;3.13;;;24.10;59.50;;;;;;5003354;28;20254;-93
2021/09/11 11:50:27;;;;;;;2.83;2.83;;;24.20;59.20;;;;;;5002459;28;20467;-91
2021/09/11 11:52:57;;;;;;;5.30;5.00;;;24.10;59.20;;;;;;4984942;28;20442;-90
2021/09/11 11:55:28;;;;;;;2.60;2.60;;;23.90;61.40;;;;;;5000620;28;20547;-90
2021/09/11 11:58:08;;;;;;;3.40;3.23;;;24.00;60.20;;;;;;4990411;28;20983;-89
2021/09/11 12:00:40;;;;;;;3.50;3.33;;;25.40;62.40;;;;;;5006573;28;20794;-90
2021/09/11 12:03:06;;;;;;;3.10;3.00;;;24.90;60.90;;;;;;5020201;28;20903;-91
2021/09/11 12:05:33;;;;;;;2.90;2.90;;;24.80;60.90;;;;;;5003867;28;20424;-90
2021/09/11 12:08:05;;;;;;;4.43;4.07;;;24.10;58.30;;;;;;4989184;28;20446;-90
2021/09/11 12:10:38;;;;;;;3.60;3.50;;;24.90;58.30;;;;;;5004430;28;20423;-94
2021/09/11 12:13:10;;;;;;;4.23;4.03;;;25.10;58.60;;;;;;5006342;28;20506;-88
2021/09/11 12:15:38;;;;;;;3.37;3.30;;;26.20;58.80;;;;;;4990423;28;20510;-85
2021/09/11 12:18:12;;;;;;;3.47;3.20;;;25.10;58.00;;;;;;5024094;28;20434;-91
2021/09/11 12:20:52;;;;;;;3.30;3.20;;;25.20;58.00;;;;;;5024107;28;20423;-92
2021/09/11 12:23:34;;;;;;;3.93;3.73;;;26.40;58.30;;;;;;5015688;28;20503;-92
2021/09/11 12:29:02;;;;;;;3.70;3.60;;;26.60;57.10;;;;;;5023654;28;20473;-90
2021/09/11 12:31:33;;;;;;;4.23;3.83;;;26.60;57.80;;;;;;5010079;28;20420;-91
2021/09/11 12:34:18;;;;;;;3.63;3.53;;;26.10;58.90;;;;;;5008530;28;20491;-90
2021/09/11 12:36:50;;;;;;;4.93;4.63;;;24.30;58.80;;;;;;4994577;28;20478;-93
2021/09/11 12:39:15;;;;;;;3.10;3.10;;;24.20;59.20;;;;;;5009064;28;20439;-91
2021/09/11 12:41:51;;;;;;;3.90;3.67;;;24.60;60.50;;;;;;5008045;28;20427;-94
2021/09/11 12:44:25;;;;;;;3.83;3.73;;;24.00;59.30;;;;;;5008864;28;20172;-91
2021/09/11 12:46:55;;;;;;;4.03;3.70;;;24.10;60.10;;;;;;5024341;28;20891;-89
2021/09/11 12:49:24;;;;;;;3.67;3.37;;;23.60;60.00;;;;;;5010843;28;20431;-90
2021/09/11 12:51:56;;;;;;;4.23;4.13;;;22.90;60.70;;;;;;5010066;28;20446;-90
2021/09/11 12:54:22;;;;;;;4.47;4.30;;;24.90;65.20;;;;;;5008542;28;20514;-91
2021/09/11 12:56:54;;;;;;;3.57;3.57;;;24.80;66.00;;;;;;5026917;28;20498;-92
2021/09/11 12:59:22;;;;;;;4.10;4.00;;;23.10;62.60;;;;;;5025128;28;20424;-89
2021/09/11 13:01:49;;;;;;;4.17;4.00;;;23.10;62.30;;;;;;5027218;28;20469;-91
2021/09/11 13:04:23;;;;;;;3.60;3.60;;;22.90;63.40;;;;;;5018771;28;20478;-92
2021/09/11 13:06:53;;;;;;;3.33;3.33;;;22.80;64.20;;;;;;5008577;28;20506;-91
2021/09/11 13:09:20;;;;;;;3.87;3.67;;;24.30;66.80;;;;;;5018652;28;20416;-93
2021/09/11 13:11:48;;;;;;;3.87;3.77;;;23.30;64.00;;;;;;4991258;28;20444;-92
2021/09/11 13:14:15;;;;;;;3.67;3.63;;;23.00;65.00;;;;;;4993295;28;20424;-91
2021/09/11 13:16:41;;;;;;;3.97;3.87;;;23.90;67.50;;;;;;4998941;28;20501;-93
2021/09/11 13:19:08;;;;;;;3.80;3.70;;;24.60;67.20;;;;;;4995154;28;20776;-93